Apollo Stella — 3FFX3 — position and weather

sailwx.info

Track history (hours):
 
Tides and Currents Weather Stations Pressure Air Temp Water Temp Dewpoint Dewpoint Depression Visibility Wind Speed Wind Dir Waves Ship Positions

Apollo Stella

Last reported at 2018-May-27 23:10 UTC. Time now 2018-Jun-21 06:41 UTC.
Position N 01°20' E 104°23'.
Warning: this ship's position is 24 days out of date.

Length 118 m; draft 5.5 m.

Type: Cargo ship. MMSI: 373303000.

Date/timePositionNaut miles runAvg speedWind from/ knotsBaromVisibWave heightAir tempDewpointWater temp
2018-May-27 23:10N 01°20' E 104°23'412.8
2018-May-27 22:53N 01°17' E 104°20'612.9
2018-May-27 22:26N 01°17' E 104°14'713.2
2018-May-27 21:55N 01°16' E 104°07'613.5
2018-May-27 21:29N 01°15' E 104°02'713.3
2018-May-27 21:00N 01°13' E 103°55'814.9
2018-May-27 20:30N 01°10' E 103°49'714.4
2018-May-27 20:00N 01°05' E 103°43'612.5
2018-May-27 19:30N 01°03' E 103°37'611.9
2018-May-27 19:00N 01°07' E 103°32'612.2
2018-May-27 18:30N 01°10' E 103°27'612.2
2018-May-27 18:00N 01°13' E 103°22'612.1
2018-May-27 17:30N 01°17' E 103°18'611.9
2018-May-27 16:58N 01°22' E 103°13'  
Track history (hours):
 
Tides and Currents Weather Stations Pressure Air Temp Water Temp Dewpoint Dewpoint Depression Visibility Wind Speed Wind Dir Waves Ship Positions

Apollo Stella

Last reported at 2018-May-27 23:10 UTC. Time now 2018-Jun-21 06:41 UTC.
Position N 01°20' E 104°23'.
Warning: this ship's position is 24 days out of date.

Length 118 m; draft 5.5 m.

Type: Cargo ship. MMSI: 373303000.

Date/timePositionNaut miles runAvg speedWind from/ knotsBaromVisibWave heightAir tempDewpointWater temp
2018-May-27 23:10N 01°20' E 104°23'412.8
2018-May-27 22:53N 01°17' E 104°20'612.9
2018-May-27 22:26N 01°17' E 104°14'713.2
2018-May-27 21:55N 01°16' E 104°07'613.5
2018-May-27 21:29N 01°15' E 104°02'713.3
2018-May-27 21:00N 01°13' E 103°55'814.9
2018-May-27 20:30N 01°10' E 103°49'714.4
2018-May-27 20:00N 01°05' E 103°43'612.5
2018-May-27 19:30N 01°03' E 103°37'611.9
2018-May-27 19:00N 01°07' E 103°32'612.2
2018-May-27 18:30N 01°10' E 103°27'612.2
2018-May-27 18:00N 01°13' E 103°22'612.1
2018-May-27 17:30N 01°17' E 103°18'611.9
2018-May-27 16:58N 01°22' E 103°13'  

Dump ship's entire track history